sensor_id;sensor_type;location;lat;lon;timestamp;temperature;humidity
69335;SHT31;56477;52.742;15.242;2023-02-01T00:00:22;3.53;90.69
69335;SHT31;56477;52.742;15.242;2023-02-01T00:03:08;3.62;90.39
69335;SHT31;56477;52.742;15.242;2023-02-01T00:05:34;3.62;90.15
69335;SHT31;56477;52.742;15.242;2023-02-01T00:08:00;3.55;90.67
69335;SHT31;56477;52.742;15.242;2023-02-01T00:10:26;3.53;90.57
69335;SHT31;56477;52.742;15.242;2023-02-01T00:12:52;3.40;91.42
69335;SHT31;56477;52.742;15.242;2023-02-01T00:15:18;3.39;91.49
69335;SHT31;56477;52.742;15.242;2023-02-01T00:17:45;3.35;91.75
69335;SHT31;56477;52.742;15.242;2023-02-01T00:20:11;3.36;92.07
69335;SHT31;56477;52.742;15.242;2023-02-01T00:22:37;3.31;92.20
69335;SHT31;56477;52.742;15.242;2023-02-01T00:25:03;3.31;92.23
69335;SHT31;56477;52.742;15.242;2023-02-01T00:27:29;3.29;92.05
69335;SHT31;56477;52.742;15.242;2023-02-01T00:29:55;3.23;92.37
69335;SHT31;56477;52.742;15.242;2023-02-01T00:32:21;3.26;92.31
69335;SHT31;56477;52.742;15.242;2023-02-01T00:34:48;3.28;92.10
69335;SHT31;56477;52.742;15.242;2023-02-01T00:37:13;3.26;91.92
69335;SHT31;56477;52.742;15.242;2023-02-01T00:39:40;3.21;92.00
69335;SHT31;56477;52.742;15.242;2023-02-01T00:42:05;3.16;92.29
69335;SHT31;56477;52.742;15.242;2023-02-01T00:44:32;3.26;91.85
69335;SHT31;56477;52.742;15.242;2023-02-01T00:47:00;3.22;92.00
69335;SHT31;56477;52.742;15.242;2023-02-01T00:49:26;3.35;91.38
69335;SHT31;56477;52.742;15.242;2023-02-01T00:51:52;3.36;91.38
69335;SHT31;56477;52.742;15.242;2023-02-01T00:54:18;3.42;91.21
69335;SHT31;56477;52.742;15.242;2023-02-01T00:56:44;3.49;90.67
69335;SHT31;56477;52.742;15.242;2023-02-01T00:59:11;3.48;90.42
69335;SHT31;56477;52.742;15.242;2023-02-01T01:01:38;3.53;90.17
69335;SHT31;56477;52.742;15.242;2023-02-01T01:04:05;3.42;90.53
69335;SHT31;56477;52.742;15.242;2023-02-01T01:06:32;3.38;90.55
69335;SHT31;56477;52.742;15.242;2023-02-01T01:09:02;3.33;90.68
69335;SHT31;56477;52.742;15.242;2023-02-01T01:11:31;3.35;90.66
69335;SHT31;56477;52.742;15.242;2023-02-01T01:13:58;3.35;90.50
69335;SHT31;56477;52.742;15.242;2023-02-01T01:16:26;3.44;90.01
69335;SHT31;56477;52.742;15.242;2023-02-01T01:18:53;3.55;89.69
69335;SHT31;56477;52.742;15.242;2023-02-01T01:21:19;3.62;89.08
69335;SHT31;56477;52.742;15.242;2023-02-01T01:23:46;3.63;89.07
69335;SHT31;56477;52.742;15.242;2023-02-01T01:26:15;3.58;89.65
69335;SHT31;56477;52.742;15.242;2023-02-01T01:28:42;3.58;89.74
69335;SHT31;56477;52.742;15.242;2023-02-01T01:31:10;3.64;89.62
69335;SHT31;56477;52.742;15.242;2023-02-01T01:33:36;3.70;89.15
69335;SHT31;56477;52.742;15.242;2023-02-01T01:36:05;3.81;88.56
69335;SHT31;56477;52.742;15.242;2023-02-01T01:38:31;3.80;88.81
69335;SHT31;56477;52.742;15.242;2023-02-01T01:40:57;3.89;88.09
69335;SHT31;56477;52.742;15.242;2023-02-01T01:43:24;3.84;88.32
69335;SHT31;56477;52.742;15.242;2023-02-01T01:45:50;3.79;88.66
69335;SHT31;56477;52.742;15.242;2023-02-01T01:48:28;3.77;88.76
69335;SHT31;56477;52.742;15.242;2023-02-01T01:50:58;3.79;88.75
69335;SHT31;56477;52.742;15.242;2023-02-01T01:53:29;3.81;88.52
69335;SHT31;56477;52.742;15.242;2023-02-01T01:55:56;3.79;88.90
69335;SHT31;56477;52.742;15.242;2023-02-01T01:58:26;3.77;88.84
69335;SHT31;56477;52.742;15.242;2023-02-01T02:00:53;3.77;88.90
69335;SHT31;56477;52.742;15.242;2023-02-01T02:03:26;3.80;88.60
69335;SHT31;56477;52.742;15.242;2023-02-01T02:05:55;3.76;89.02
69335;SHT31;56477;52.742;15.242;2023-02-01T02:08:24;3.76;88.96
69335;SHT31;56477;52.742;15.242;2023-02-01T02:10:51;3.83;88.46
69335;SHT31;56477;52.742;15.242;2023-02-01T02:13:37;3.83;88.23
69335;SHT31;56477;52.742;15.242;2023-02-01T02:31:14;3.86;88.50
69335;SHT31;56477;52.742;15.242;2023-02-01T02:36:55;3.77;88.58
69335;SHT31;56477;52.742;15.242;2023-02-01T02:45:20;3.81;88.34
69335;SHT31;56477;52.742;15.242;2023-02-01T02:50:51;3.81;88.32
69335;SHT31;56477;52.742;15.242;2023-02-01T02:53:48;3.87;87.75
69335;SHT31;56477;52.742;15.242;2023-02-01T02:56:38;3.79;88.06
69335;SHT31;56477;52.742;15.242;2023-02-01T02:59:25;3.70;88.41
69335;SHT31;56477;52.742;15.242;2023-02-01T03:02:10;3.71;88.46
69335;SHT31;56477;52.742;15.242;2023-02-01T03:04:55;3.77;88.08
69335;SHT31;56477;52.742;15.242;2023-02-01T03:13:28;3.59;88.73
69335;SHT31;56477;52.742;15.242;2023-02-01T03:21:17;3.63;88.50
69335;SHT31;56477;52.742;15.242;2023-02-01T03:23:47;3.64;88.49
69335;SHT31;56477;52.742;15.242;2023-02-01T03:26:16;3.60;88.90
69335;SHT31;56477;52.742;15.242;2023-02-01T03:28:49;3.71;88.25
69335;SHT31;56477;52.742;15.242;2023-02-01T03:31:18;3.63;88.95
69335;SHT31;56477;52.742;15.242;2023-02-01T03:33:43;3.69;88.49
69335;SHT31;56477;52.742;15.242;2023-02-01T03:37:00;3.67;88.49
69335;SHT31;56477;52.742;15.242;2023-02-01T03:39:32;3.67;88.73
69335;SHT31;56477;52.742;15.242;2023-02-01T03:42:04;3.66;88.80
69335;SHT31;56477;52.742;15.242;2023-02-01T03:45:01;3.64;88.61
69335;SHT31;56477;52.742;15.242;2023-02-01T03:47:34;3.62;88.77
69335;SHT31;56477;52.742;15.242;2023-02-01T03:50:12;3.60;88.89
69335;SHT31;56477;52.742;15.242;2023-02-01T03:52:42;3.59;88.88
69335;SHT31;56477;52.742;15.242;2023-02-01T03:55:11;3.56;88.93
69335;SHT31;56477;52.742;15.242;2023-02-01T03:57:43;3.66;88.47
69335;SHT31;56477;52.742;15.242;2023-02-01T04:00:19;3.73;88.00
69335;SHT31;56477;52.742;15.242;2023-02-01T04:02:45;3.64;88.58
69335;SHT31;56477;52.742;15.242;2023-02-01T04:05:11;3.64;88.54
69335;SHT31;56477;52.742;15.242;2023-02-01T04:07:38;3.60;88.69
69335;SHT31;56477;52.742;15.242;2023-02-01T04:10:04;3.58;88.91
69335;SHT31;56477;52.742;15.242;2023-02-01T04:12:30;3.56;89.03
69335;SHT31;56477;52.742;15.242;2023-02-01T04:14:56;3.56;89.27
69335;SHT31;56477;52.742;15.242;2023-02-01T04:17:22;3.56;89.37
69335;SHT31;56477;52.742;15.242;2023-02-01T04:19:48;3.63;88.84
69335;SHT31;56477;52.742;15.242;2023-02-01T04:22:15;3.58;89.12
69335;SHT31;56477;52.742;15.242;2023-02-01T04:24:41;3.62;88.99
69335;SHT31;56477;52.742;15.242;2023-02-01T04:27:07;3.67;88.58
69335;SHT31;56477;52.742;15.242;2023-02-01T04:29:33;3.63;88.73
69335;SHT31;56477;52.742;15.242;2023-02-01T04:31:59;3.60;89.05
69335;SHT31;56477;52.742;15.242;2023-02-01T04:34:25;3.60;88.95
69335;SHT31;56477;52.742;15.242;2023-02-01T04:36:52;3.64;88.92
69335;SHT31;56477;52.742;15.242;2023-02-01T04:39:18;3.60;89.10
69335;SHT31;56477;52.742;15.242;2023-02-01T04:41:44;3.64;88.83
69335;SHT31;56477;52.742;15.242;2023-02-01T04:44:17;3.64;88.85
69335;SHT31;56477;52.742;15.242;2023-02-01T04:46:45;3.59;89.14
69335;SHT31;56477;52.742;15.242;2023-02-01T04:49:12;3.69;88.83
69335;SHT31;56477;52.742;15.242;2023-02-01T04:51:39;3.67;88.63
69335;SHT31;56477;52.742;15.242;2023-02-01T04:54:06;3.70;88.59
69335;SHT31;56477;52.742;15.242;2023-02-01T04:56:32;3.63;88.74
69335;SHT31;56477;52.742;15.242;2023-02-01T04:59:00;3.63;88.75
69335;SHT31;56477;52.742;15.242;2023-02-01T05:01:28;3.60;88.87
69335;SHT31;56477;52.742;15.242;2023-02-01T05:03:54;3.62;88.69
69335;SHT31;56477;52.742;15.242;2023-02-01T05:06:21;3.56;88.90
69335;SHT31;56477;52.742;15.242;2023-02-01T05:08:47;3.56;88.89
69335;SHT31;56477;52.742;15.242;2023-02-01T05:11:13;3.60;88.72
69335;SHT31;56477;52.742;15.242;2023-02-01T05:14:12;3.66;88.22
69335;SHT31;56477;52.742;15.242;2023-02-01T05:16:38;3.69;88.05
69335;SHT31;56477;52.742;15.242;2023-02-01T05:19:04;3.81;87.49
69335;SHT31;56477;52.742;15.242;2023-02-01T05:21:30;3.73;88.10
69335;SHT31;56477;52.742;15.242;2023-02-01T05:23:56;3.74;88.01
69335;SHT31;56477;52.742;15.242;2023-02-01T05:26:46;3.80;87.85
69335;SHT31;56477;52.742;15.242;2023-02-01T05:29:12;3.73;88.12
69335;SHT31;56477;52.742;15.242;2023-02-01T05:31:39;3.73;88.25
69335;SHT31;56477;52.742;15.242;2023-02-01T05:34:05;3.76;88.30
69335;SHT31;56477;52.742;15.242;2023-02-01T05:36:32;3.77;88.22
69335;SHT31;56477;52.742;15.242;2023-02-01T05:38:58;3.81;88.09
69335;SHT31;56477;52.742;15.242;2023-02-01T05:41:24;3.81;87.93
69335;SHT31;56477;52.742;15.242;2023-02-01T05:43:50;3.80;88.27
69335;SHT31;56477;52.742;15.242;2023-02-01T05:46:16;3.83;88.36
69335;SHT31;56477;52.742;15.242;2023-02-01T05:48:42;3.77;88.72
69335;SHT31;56477;52.742;15.242;2023-02-01T05:51:09;3.79;88.80
69335;SHT31;56477;52.742;15.242;2023-02-01T05:53:36;3.79;88.58
69335;SHT31;56477;52.742;15.242;2023-02-01T05:56:02;3.84;88.24
69335;SHT31;56477;52.742;15.242;2023-02-01T05:58:28;3.93;88.13
69335;SHT31;56477;52.742;15.242;2023-02-01T06:00:55;3.91;88.17
69335;SHT31;56477;52.742;15.242;2023-02-01T06:03:21;3.91;88.10
69335;SHT31;56477;52.742;15.242;2023-02-01T06:05:47;3.97;87.81
69335;SHT31;56477;52.742;15.242;2023-02-01T06:08:14;4.05;87.61
69335;SHT31;56477;52.742;15.242;2023-02-01T06:10:40;4.04;87.95
69335;SHT31;56477;52.742;15.242;2023-02-01T06:13:06;4.04;87.87
69335;SHT31;56477;52.742;15.242;2023-02-01T06:15:33;4.07;87.70
69335;SHT31;56477;52.742;15.242;2023-02-01T06:17:59;4.08;87.66
69335;SHT31;56477;52.742;15.242;2023-02-01T06:20:25;4.08;87.74
69335;SHT31;56477;52.742;15.242;2023-02-01T06:22:51;4.11;87.28
69335;SHT31;56477;52.742;15.242;2023-02-01T06:25:18;4.10;87.71
69335;SHT31;56477;52.742;15.242;2023-02-01T06:27:44;4.12;87.26
69335;SHT31;56477;52.742;15.242;2023-02-01T06:30:11;4.14;87.24
69335;SHT31;56477;52.742;15.242;2023-02-01T06:32:40;4.07;87.69
69335;SHT31;56477;52.742;15.242;2023-02-01T06:35:08;4.05;87.70
69335;SHT31;56477;52.742;15.242;2023-02-01T06:37:37;4.10;87.53
69335;SHT31;56477;52.742;15.242;2023-02-01T06:40:04;4.07;87.64
69335;SHT31;56477;52.742;15.242;2023-02-01T06:42:30;4.11;87.51
69335;SHT31;56477;52.742;15.242;2023-02-01T06:44:56;4.10;87.70
69335;SHT31;56477;52.742;15.242;2023-02-01T06:47:22;4.17;87.21
69335;SHT31;56477;52.742;15.242;2023-02-01T06:49:48;4.10;87.69
69335;SHT31;56477;52.742;15.242;2023-02-01T06:52:14;4.12;87.53
69335;SHT31;56477;52.742;15.242;2023-02-01T06:54:40;4.18;87.19
69335;SHT31;56477;52.742;15.242;2023-02-01T06:57:06;4.18;87.33
69335;SHT31;56477;52.742;15.242;2023-02-01T06:59:32;4.17;87.66
69335;SHT31;56477;52.742;15.242;2023-02-01T07:01:58;4.08;87.87
69335;SHT31;56477;52.742;15.242;2023-02-01T07:04:24;4.08;87.95
69335;SHT31;56477;52.742;15.242;2023-02-01T07:06:50;4.12;87.70
69335;SHT31;56477;52.742;15.242;2023-02-01T07:09:16;4.10;87.91
69335;SHT31;56477;52.742;15.242;2023-02-01T07:11:42;4.11;87.74
69335;SHT31;56477;52.742;15.242;2023-02-01T07:14:10;4.17;87.56
69335;SHT31;56477;52.742;15.242;2023-02-01T07:16:36;4.22;87.29
69335;SHT31;56477;52.742;15.242;2023-02-01T07:19:02;4.24;87.35
69335;SHT31;56477;52.742;15.242;2023-02-01T07:21:28;4.20;87.68
69335;SHT31;56477;52.742;15.242;2023-02-01T07:23:55;4.25;87.54
69335;SHT31;56477;52.742;15.242;2023-02-01T07:26:21;4.28;87.57
69335;SHT31;56477;52.742;15.242;2023-02-01T07:28:47;4.28;87.83
69335;SHT31;56477;52.742;15.242;2023-02-01T07:31:18;4.38;87.30
69335;SHT31;56477;52.742;15.242;2023-02-01T07:33:49;4.34;87.69
69335;SHT31;56477;52.742;15.242;2023-02-01T07:36:18;4.34;87.74
69335;SHT31;56477;52.742;15.242;2023-02-01T07:38:45;4.28;88.29
69335;SHT31;56477;52.742;15.242;2023-02-01T07:41:12;4.27;88.63
69335;SHT31;56477;52.742;15.242;2023-02-01T07:43:39;4.24;88.88
69335;SHT31;56477;52.742;15.242;2023-02-01T07:46:05;4.27;89.11
69335;SHT31;56477;52.742;15.242;2023-02-01T07:48:32;4.24;89.50
69335;SHT31;56477;52.742;15.242;2023-02-01T07:51:13;4.12;90.77
69335;SHT31;56477;52.742;15.242;2023-02-01T07:53:40;4.02;92.17
69335;SHT31;56477;52.742;15.242;2023-02-01T07:56:18;3.86;93.29
69335;SHT31;56477;52.742;15.242;2023-02-01T07:58:51;3.76;93.94
69335;SHT31;56477;52.742;15.242;2023-02-01T08:01:20;3.70;94.27
69335;SHT31;56477;52.742;15.242;2023-02-01T08:03:48;3.63;94.57
69335;SHT31;56477;52.742;15.242;2023-02-01T08:06:14;3.60;94.58
69335;SHT31;56477;52.742;15.242;2023-02-01T08:08:40;3.59;95.07
69335;SHT31;56477;52.742;15.242;2023-02-01T08:11:06;3.55;95.07
69335;SHT31;56477;52.742;15.242;2023-02-01T08:13:34;3.53;95.20
69335;SHT31;56477;52.742;15.242;2023-02-01T08:16:02;3.52;95.08
69335;SHT31;56477;52.742;15.242;2023-02-01T08:18:29;3.53;95.21
69335;SHT31;56477;52.742;15.242;2023-02-01T08:20:56;3.46;95.18
69335;SHT31;56477;52.742;15.242;2023-02-01T08:23:23;3.44;95.95
69335;SHT31;56477;52.742;15.242;2023-02-01T08:25:49;3.48;95.40
69335;SHT31;56477;52.742;15.242;2023-02-01T08:28:15;3.43;95.62
69335;SHT31;56477;52.742;15.242;2023-02-01T08:30:41;3.44;95.33
69335;SHT31;56477;52.742;15.242;2023-02-01T08:33:08;3.48;95.29
69335;SHT31;56477;52.742;15.242;2023-02-01T08:35:35;3.46;95.70
69335;SHT31;56477;52.742;15.242;2023-02-01T08:38:02;3.49;95.20
69335;SHT31;56477;52.742;15.242;2023-02-01T08:40:28;3.46;95.45
69335;SHT31;56477;52.742;15.242;2023-02-01T08:42:55;3.44;95.20
69335;SHT31;56477;52.742;15.242;2023-02-01T08:45:26;3.46;94.86
69335;SHT31;56477;52.742;15.242;2023-02-01T08:47:54;3.44;95.63
69335;SHT31;56477;52.742;15.242;2023-02-01T08:50:21;3.44;95.35
69335;SHT31;56477;52.742;15.242;2023-02-01T08:52:48;3.44;95.56
69335;SHT31;56477;52.742;15.242;2023-02-01T08:55:14;3.46;95.43
69335;SHT31;56477;52.742;15.242;2023-02-01T08:57:41;3.48;95.70
69335;SHT31;56477;52.742;15.242;2023-02-01T09:00:10;3.50;95.56
69335;SHT31;56477;52.742;15.242;2023-02-01T09:02:37;3.49;95.89
69335;SHT31;56477;52.742;15.242;2023-02-01T09:05:04;3.48;95.72
69335;SHT31;56477;52.742;15.242;2023-02-01T09:07:31;3.43;95.70
69335;SHT31;56477;52.742;15.242;2023-02-01T09:09:57;3.33;95.92
69335;SHT31;56477;52.742;15.242;2023-02-01T09:12:31;3.29;96.00
69335;SHT31;56477;52.742;15.242;2023-02-01T09:14:58;3.22;96.19
69335;SHT31;56477;52.742;15.242;2023-02-01T09:17:27;3.22;96.33
69335;SHT31;56477;52.742;15.242;2023-02-01T09:19:53;3.18;96.16
69335;SHT31;56477;52.742;15.242;2023-02-01T09:22:20;3.15;96.59
69335;SHT31;56477;52.742;15.242;2023-02-01T09:24:46;3.07;96.51
69335;SHT31;56477;52.742;15.242;2023-02-01T09:27:13;3.00;96.93
69335;SHT31;56477;52.742;15.242;2023-02-01T09:29:39;2.94;96.93
69335;SHT31;56477;52.742;15.242;2023-02-01T09:32:05;2.94;97.19
69335;SHT31;56477;52.742;15.242;2023-02-01T09:34:32;2.91;97.39
69335;SHT31;56477;52.742;15.242;2023-02-01T09:36:59;2.87;97.08
69335;SHT31;56477;52.742;15.242;2023-02-01T09:39:28;2.81;97.20
69335;SHT31;56477;52.742;15.242;2023-02-01T09:47:22;2.76;96.98
69335;SHT31;56477;52.742;15.242;2023-02-01T09:49:56;2.73;97.29
69335;SHT31;56477;52.742;15.242;2023-02-01T09:52:55;2.81;97.66
69335;SHT31;56477;52.742;15.242;2023-02-01T09:55:32;2.83;97.12
69335;SHT31;56477;52.742;15.242;2023-02-01T09:58:05;2.85;97.26
69335;SHT31;56477;52.742;15.242;2023-02-01T10:00:37;2.79;97.52
69335;SHT31;56477;52.742;15.242;2023-02-01T10:03:04;2.90;97.59
69335;SHT31;56477;52.742;15.242;2023-02-01T10:14:43;2.98;97.74
69335;SHT31;56477;52.742;15.242;2023-02-01T10:22:45;3.02;98.26
69335;SHT31;56477;52.742;15.242;2023-02-01T10:25:14;3.04;98.09
69335;SHT31;56477;52.742;15.242;2023-02-01T10:27:42;3.08;98.04
69335;SHT31;56477;52.742;15.242;2023-02-01T10:30:23;3.15;97.61
69335;SHT31;56477;52.742;15.242;2023-02-01T10:32:56;3.23;97.19
69335;SHT31;56477;52.742;15.242;2023-02-01T10:35:31;3.31;96.65
69335;SHT31;56477;52.742;15.242;2023-02-01T10:38:11;3.32;97.08
69335;SHT31;56477;52.742;15.242;2023-02-01T10:40:39;3.39;96.81
69335;SHT31;56477;52.742;15.242;2023-02-01T10:43:05;3.40;96.53
69335;SHT31;56477;52.742;15.242;2023-02-01T10:45:33;3.48;96.44
69335;SHT31;56477;52.742;15.242;2023-02-01T10:48:00;3.56;95.58
69335;SHT31;56477;52.742;15.242;2023-02-01T10:50:38;3.58;95.69
69335;SHT31;56477;52.742;15.242;2023-02-01T10:53:12;3.64;95.22
69335;SHT31;56477;52.742;15.242;2023-02-01T10:55:50;3.58;95.70
69335;SHT31;56477;52.742;15.242;2023-02-01T11:00:55;3.60;95.54
69335;SHT31;56477;52.742;15.242;2023-02-01T11:09:15;3.66;95.51
69335;SHT31;56477;52.742;15.242;2023-02-01T11:14:18;3.71;95.08
69335;SHT31;56477;52.742;15.242;2023-02-01T11:16:57;3.69;95.00
69335;SHT31;56477;52.742;15.242;2023-02-01T11:19:24;3.70;95.02
69335;SHT31;56477;52.742;15.242;2023-02-01T11:21:57;3.69;95.11
69335;SHT31;56477;52.742;15.242;2023-02-01T11:24:27;3.73;94.98
69335;SHT31;56477;52.742;15.242;2023-02-01T11:26:56;3.83;94.44
69335;SHT31;56477;52.742;15.242;2023-02-01T11:29:23;3.86;94.50
69335;SHT31;56477;52.742;15.242;2023-02-01T11:31:59;3.87;93.71
69335;SHT31;56477;52.742;15.242;2023-02-01T11:34:56;3.89;93.35
69335;SHT31;56477;52.742;15.242;2023-02-01T11:37:27;3.91;94.04
69335;SHT31;56477;52.742;15.242;2023-02-01T11:40:23;3.89;92.96
69335;SHT31;56477;52.742;15.242;2023-02-01T11:42:55;3.90;93.94
69335;SHT31;56477;52.742;15.242;2023-02-01T11:45:28;3.87;94.08
69335;SHT31;56477;52.742;15.242;2023-02-01T11:47:57;3.86;93.57
69335;SHT31;56477;52.742;15.242;2023-02-01T11:50:34;3.80;93.39
69335;SHT31;56477;52.742;15.242;2023-02-01T12:04:48;4.07;93.45
69335;SHT31;56477;52.742;15.242;2023-02-01T12:07:37;4.14;92.75
69335;SHT31;56477;52.742;15.242;2023-02-01T12:10:17;4.24;92.32
69335;SHT31;56477;52.742;15.242;2023-02-01T12:13:14;4.20;92.22
69335;SHT31;56477;52.742;15.242;2023-02-01T12:21:22;4.41;90.96
69335;SHT31;56477;52.742;15.242;2023-02-01T12:43:32;4.49;90.73
69335;SHT31;56477;52.742;15.242;2023-02-01T12:46:16;4.50;90.77
69335;SHT31;56477;52.742;15.242;2023-02-01T12:52:02;4.45;90.71
69335;SHT31;56477;52.742;15.242;2023-02-01T12:54:38;4.49;90.26
69335;SHT31;56477;52.742;15.242;2023-02-01T12:57:13;4.58;90.78
69335;SHT31;56477;52.742;15.242;2023-02-01T13:00:00;4.65;90.22
69335;SHT31;56477;52.742;15.242;2023-02-01T13:02:37;4.75;89.48
69335;SHT31;56477;52.742;15.242;2023-02-01T13:07:45;5.24;87.88
69335;SHT31;56477;52.742;15.242;2023-02-01T13:13:29;5.34;87.77
69335;SHT31;56477;52.742;15.242;2023-02-01T13:16:04;5.51;87.75
69335;SHT31;56477;52.742;15.242;2023-02-01T13:18:36;5.34;87.31
69335;SHT31;56477;52.742;15.242;2023-02-01T13:21:07;5.51;87.79
69335;SHT31;56477;52.742;15.242;2023-02-01T13:23:37;5.56;87.06
69335;SHT31;56477;52.742;15.242;2023-02-01T13:26:03;5.30;87.63
69335;SHT31;56477;52.742;15.242;2023-02-01T13:28:53;5.42;87.55
69335;SHT31;56477;52.742;15.242;2023-02-01T13:37:27;5.10;87.67
69335;SHT31;56477;52.742;15.242;2023-02-01T13:43:19;4.97;88.17
69335;SHT31;56477;52.742;15.242;2023-02-01T13:45:43;4.90;88.22
69335;SHT31;56477;52.742;15.242;2023-02-01T13:48:29;4.87;87.97
69335;SHT31;56477;52.742;15.242;2023-02-01T13:50:57;4.86;87.95
69335;SHT31;56477;52.742;15.242;2023-02-01T13:53:32;4.84;87.87
69335;SHT31;56477;52.742;15.242;2023-02-01T13:56:02;4.79;88.00
69335;SHT31;56477;52.742;15.242;2023-02-01T13:58:39;4.80;87.98
69335;SHT31;56477;52.742;15.242;2023-02-01T14:04:05;4.69;88.39
69335;SHT31;56477;52.742;15.242;2023-02-01T14:11:54;4.63;88.71
69335;SHT31;56477;52.742;15.242;2023-02-01T14:21:58;4.66;88.64
69335;SHT31;56477;52.742;15.242;2023-02-01T14:24:36;4.62;88.70
69335;SHT31;56477;52.742;15.242;2023-02-01T14:27:17;4.56;89.05
69335;SHT31;56477;52.742;15.242;2023-02-01T14:29:51;4.56;88.96
69335;SHT31;56477;52.742;15.242;2023-02-01T14:32:32;4.50;89.34
69335;SHT31;56477;52.742;15.242;2023-02-01T14:35:19;4.44;89.84
69335;SHT31;56477;52.742;15.242;2023-02-01T14:37:47;4.39;89.66
69335;SHT31;56477;52.742;15.242;2023-02-01T14:40:20;4.38;89.85
69335;SHT31;56477;52.742;15.242;2023-02-01T14:42:50;4.29;89.85
69335;SHT31;56477;52.742;15.242;2023-02-01T14:55:33;4.21;90.43
69335;SHT31;56477;52.742;15.242;2023-02-01T14:58:02;4.17;90.64
69335;SHT31;56477;52.742;15.242;2023-02-01T15:00:31;4.11;91.04
69335;SHT31;56477;52.742;15.242;2023-02-01T15:05:57;4.07;91.54
69335;SHT31;56477;52.742;15.242;2023-02-01T15:08:28;4.05;91.55
69335;SHT31;56477;52.742;15.242;2023-02-01T15:10:57;4.05;91.45
69335;SHT31;56477;52.742;15.242;2023-02-01T15:13:26;4.02;91.82
69335;SHT31;56477;52.742;15.242;2023-02-01T15:16:13;3.94;92.20
69335;SHT31;56477;52.742;15.242;2023-02-01T15:18:40;3.93;92.19
69335;SHT31;56477;52.742;15.242;2023-02-01T15:21:21;3.93;92.21
69335;SHT31;56477;52.742;15.242;2023-02-01T15:23:48;3.94;92.24
69335;SHT31;56477;52.742;15.242;2023-02-01T15:26:31;3.94;92.16
69335;SHT31;56477;52.742;15.242;2023-02-01T15:28:58;3.94;92.20
69335;SHT31;56477;52.742;15.242;2023-02-01T15:31:38;3.93;92.15
69335;SHT31;56477;52.742;15.242;2023-02-01T15:34:06;3.98;92.39
69335;SHT31;56477;52.742;15.242;2023-02-01T15:36:36;3.89;92.73
69335;SHT31;56477;52.742;15.242;2023-02-01T15:39:16;3.89;93.37
69335;SHT31;56477;52.742;15.242;2023-02-01T15:41:52;3.80;94.11
69335;SHT31;56477;52.742;15.242;2023-02-01T15:44:30;3.74;94.74
69335;SHT31;56477;52.742;15.242;2023-02-01T15:46:58;3.66;94.82
69335;SHT31;56477;52.742;15.242;2023-02-01T15:49:30;3.63;95.24
69335;SHT31;56477;52.742;15.242;2023-02-01T15:51:59;3.60;94.52
69335;SHT31;56477;52.742;15.242;2023-02-01T15:54:30;3.56;95.56
69335;SHT31;56477;52.742;15.242;2023-02-01T15:56:59;3.50;95.47
69335;SHT31;56477;52.742;15.242;2023-02-01T15:59:34;3.40;96.29
69335;SHT31;56477;52.742;15.242;2023-02-01T16:02:03;3.33;96.60
69335;SHT31;56477;52.742;15.242;2023-02-01T16:04:30;3.19;96.12
69335;SHT31;56477;52.742;15.242;2023-02-01T16:07:01;3.04;96.18
69335;SHT31;56477;52.742;15.242;2023-02-01T16:10:03;2.92;97.21
69335;SHT31;56477;52.742;15.242;2023-02-01T16:12:46;2.80;96.94
69335;SHT31;56477;52.742;15.242;2023-02-01T16:15:12;2.70;97.09
69335;SHT31;56477;52.742;15.242;2023-02-01T16:17:42;2.58;96.74
69335;SHT31;56477;52.742;15.242;2023-02-01T16:20:09;2.57;97.00
69335;SHT31;56477;52.742;15.242;2023-02-01T16:22:36;2.60;97.10
69335;SHT31;56477;52.742;15.242;2023-02-01T16:25:02;2.58;97.35
69335;SHT31;56477;52.742;15.242;2023-02-01T16:27:28;2.57;97.77
69335;SHT31;56477;52.742;15.242;2023-02-01T16:29:54;2.52;97.29
69335;SHT31;56477;52.742;15.242;2023-02-01T16:32:22;2.46;97.56
69335;SHT31;56477;52.742;15.242;2023-02-01T16:34:48;2.44;97.49
69335;SHT31;56477;52.742;15.242;2023-02-01T16:37:23;2.42;97.74
69335;SHT31;56477;52.742;15.242;2023-02-01T16:39:49;2.39;97.72
69335;SHT31;56477;52.742;15.242;2023-02-01T16:42:16;2.36;97.57
69335;SHT31;56477;52.742;15.242;2023-02-01T16:44:48;2.34;97.48
69335;SHT31;56477;52.742;15.242;2023-02-01T16:47:20;2.33;97.62
69335;SHT31;56477;52.742;15.242;2023-02-01T16:49:47;2.34;97.67
69335;SHT31;56477;52.742;15.242;2023-02-01T16:52:25;2.32;97.84
69335;SHT31;56477;52.742;15.242;2023-02-01T16:54:52;2.32;98.01
69335;SHT31;56477;52.742;15.242;2023-02-01T16:57:19;2.32;98.04
69335;SHT31;56477;52.742;15.242;2023-02-01T16:59:48;2.36;97.84
69335;SHT31;56477;52.742;15.242;2023-02-01T17:02:19;2.39;97.89
69335;SHT31;56477;52.742;15.242;2023-02-01T17:04:45;2.44;97.82
69335;SHT31;56477;52.742;15.242;2023-02-01T17:07:18;2.47;98.24
69335;SHT31;56477;52.742;15.242;2023-02-01T17:09:47;2.46;98.00
69335;SHT31;56477;52.742;15.242;2023-02-01T17:12:25;2.52;97.91
69335;SHT31;56477;52.742;15.242;2023-02-01T17:14:56;2.47;98.28
69335;SHT31;56477;52.742;15.242;2023-02-01T17:17:25;2.44;98.33
69335;SHT31;56477;52.742;15.242;2023-02-01T17:19:53;2.42;98.59
69335;SHT31;56477;52.742;15.242;2023-02-01T17:22:20;2.50;98.14
69335;SHT31;56477;52.742;15.242;2023-02-01T17:25:13;2.53;97.72
69335;SHT31;56477;52.742;15.242;2023-02-01T17:27:39;2.52;98.18
69335;SHT31;56477;52.742;15.242;2023-02-01T17:30:07;2.52;97.98
69335;SHT31;56477;52.742;15.242;2023-02-01T17:32:35;2.53;97.80
69335;SHT31;56477;52.742;15.242;2023-02-01T17:35:01;2.54;97.64
69335;SHT31;56477;52.742;15.242;2023-02-01T17:37:30;2.54;97.83
69335;SHT31;56477;52.742;15.242;2023-02-01T17:39:57;2.53;97.89
69335;SHT31;56477;52.742;15.242;2023-02-01T17:42:24;2.54;97.85
69335;SHT31;56477;52.742;15.242;2023-02-01T17:44:54;2.56;97.84
69335;SHT31;56477;52.742;15.242;2023-02-01T17:47:21;2.58;97.67
69335;SHT31;56477;52.742;15.242;2023-02-01T17:49:47;2.60;97.73
69335;SHT31;56477;52.742;15.242;2023-02-01T17:52:17;2.56;97.94
69335;SHT31;56477;52.742;15.242;2023-02-01T17:54:44;2.54;98.24
69335;SHT31;56477;52.742;15.242;2023-02-01T17:57:13;2.56;98.39
69335;SHT31;56477;52.742;15.242;2023-02-01T17:59:39;2.57;98.38
69335;SHT31;56477;52.742;15.242;2023-02-01T18:02:23;2.64;98.53
69335;SHT31;56477;52.742;15.242;2023-02-01T18:04:53;2.65;98.71
69335;SHT31;56477;52.742;15.242;2023-02-01T18:07:19;2.71;98.55
69335;SHT31;56477;52.742;15.242;2023-02-01T18:09:45;2.80;98.33
69335;SHT31;56477;52.742;15.242;2023-02-01T18:12:19;2.81;98.47
69335;SHT31;56477;52.742;15.242;2023-02-01T18:14:45;2.88;98.59
69335;SHT31;56477;52.742;15.242;2023-02-01T18:17:11;2.91;98.38
69335;SHT31;56477;52.742;15.242;2023-02-01T18:19:37;2.95;98.46
69335;SHT31;56477;52.742;15.242;2023-02-01T18:22:04;2.94;98.67